createdAt,value
2018-09-30T00:00:54.532Z,98244.39
2018-09-30T00:03:23.799Z,98249.98
2018-09-30T00:05:53.051Z,98258.84
2018-09-30T00:08:22.114Z,98245.09
2018-09-30T00:10:51.519Z,98244.33
2018-09-30T00:13:20.751Z,98244.84
2018-09-30T00:15:50.147Z,98240.09
2018-09-30T00:18:19.511Z,98244.12
2018-09-30T00:20:48.639Z,98244.63
2018-09-30T00:23:18.047Z,98255.13
2018-09-30T00:25:52.361Z,98260.92
2018-09-30T00:28:21.621Z,98259.45
2018-09-30T00:30:50.559Z,98259.20
2018-09-30T00:33:19.743Z,98257.16
2018-09-30T00:35:48.872Z,98250.20
2018-09-30T00:38:18.248Z,98252.59
2018-09-30T00:40:47.298Z,98260.09
2018-09-30T00:43:16.532Z,98263.59
2018-09-30T00:45:45.667Z,98262.56
2018-09-30T00:48:14.889Z,98264.47
2018-09-30T00:50:44.262Z,98267.75
2018-09-30T00:53:13.140Z,98273.85
2018-09-30T00:55:42.140Z,98275.94
2018-09-30T00:58:11.254Z,98276.16
2018-09-30T01:00:40.613Z,98277.16
2018-09-30T01:03:09.952Z,98278.58
2018-09-30T01:05:39.344Z,98278.19
2018-09-30T01:08:08.707Z,98277.80
2018-09-30T01:10:37.571Z,98279.37
2018-09-30T01:13:06.706Z,98280.46
2018-09-30T01:15:35.993Z,98274.77
2018-09-30T01:18:05.400Z,98279.73
2018-09-30T01:20:34.601Z,98277.02
2018-09-30T01:23:03.821Z,98280.18
2018-09-30T01:25:33.043Z,98276.30
2018-09-30T01:28:02.337Z,98278.48
2018-09-30T01:30:31.334Z,98279.01
2018-09-30T01:33:00.622Z,98275.50
2018-09-30T01:35:30.029Z,98283.48
2018-09-30T01:37:58.914Z,98280.05
2018-09-30T01:40:28.121Z,98282.53
2018-09-30T01:42:57.052Z,98289.71
2018-09-30T01:45:26.359Z,98291.12
2018-09-30T01:47:55.807Z,98289.30
2018-09-30T01:50:25.023Z,98288.53
2018-09-30T01:52:56.270Z,98294.98
2018-09-30T01:55:25.491Z,98297.53
2018-09-30T01:57:54.728Z,98297.16
2018-09-30T02:00:24.079Z,98295.67
2018-09-30T02:02:53.309Z,98303.04
2018-09-30T02:05:22.183Z,98302.88
2018-09-30T02:07:51.112Z,98301.39
2018-09-30T02:10:20.630Z,98302.84
2018-09-30T02:12:49.672Z,98307.81
2018-09-30T02:15:18.888Z,98307.55
2018-09-30T02:17:47.906Z,98310.50
2018-09-30T02:20:17.120Z,98307.38
2018-09-30T02:22:46.355Z,98317.59
2018-09-30T02:25:15.722Z,98314.72
2018-09-30T02:27:45.001Z,98311.19
2018-09-30T02:30:14.003Z,98316.22
2018-09-30T02:32:43.234Z,98322.81
2018-09-30T02:35:12.391Z,98320.75
2018-09-30T02:37:41.523Z,98324.02
2018-09-30T02:40:10.889Z,98324.64
2018-09-30T02:42:40.392Z,98330.36
2018-09-30T02:45:09.729Z,98332.06
2018-09-30T02:47:38.984Z,98333.75
2018-09-30T02:50:08.009Z,98330.42
2018-09-30T02:52:37.298Z,98330.42
2018-09-30T02:55:06.601Z,98331.61
2018-09-30T02:57:35.975Z,98328.03
2018-09-30T03:00:05.344Z,98338.03
2018-09-30T03:02:34.526Z,98337.84
2018-09-30T03:05:03.551Z,98342.60
2018-09-30T03:07:37.724Z,98341.40
2018-09-30T03:10:07.295Z,98341.03
2018-09-30T03:12:36.553Z,98344.06
2018-09-30T03:15:05.664Z,98350.38
2018-09-30T03:17:35.061Z,98343.42
2018-09-30T03:20:04.188Z,98351.19
2018-09-30T03:22:33.337Z,98349.88
2018-09-30T03:25:02.667Z,98352.45
2018-09-30T03:27:31.967Z,98349.62
2018-09-30T03:30:01.285Z,98346.05
2018-09-30T03:32:30.519Z,98358.09
2018-09-30T03:34:59.374Z,98359.28
2018-09-30T03:37:28.299Z,98358.97
2018-09-30T03:39:57.235Z,98361.56
2018-09-30T03:42:26.487Z,98361.34
2018-09-30T03:44:55.868Z,98362.80
2018-09-30T03:47:25.056Z,98362.49
2018-09-30T03:49:54.116Z,98368.33
2018-09-30T03:52:23.327Z,98370.69
2018-09-30T03:54:52.368Z,98367.57
2018-09-30T03:57:21.616Z,98367.27
2018-09-30T03:59:50.981Z,98375.45
2018-09-30T04:02:20.149Z,98375.27
2018-09-30T04:04:49.327Z,98377.33
2018-09-30T04:07:18.582Z,98382.00
2018-09-30T04:09:47.659Z,98382.62
2018-09-30T04:12:16.534Z,98384.44
2018-09-30T04:14:45.700Z,98387.49
2018-09-30T04:17:15.110Z,98386.68
2018-09-30T04:19:44.411Z,98386.75
2018-09-30T04:22:13.592Z,98384.94
2018-09-30T04:24:42.823Z,98390.85
2018-09-30T04:27:12.011Z,98389.52
2018-09-30T04:29:41.010Z,98393.91
2018-09-30T04:32:10.182Z,98392.76
2018-09-30T04:34:39.423Z,98399.08
2018-09-30T04:37:08.667Z,98399.13
2018-09-30T04:39:37.928Z,98397.14
2018-09-30T04:42:07.216Z,98394.00
2018-09-30T04:44:36.451Z,98403.16
2018-09-30T04:47:05.908Z,98403.53
2018-09-30T04:49:35.269Z,98410.11
2018-09-30T04:52:04.456Z,98411.43
2018-09-30T04:54:33.836Z,98412.69
2018-09-30T04:57:03.103Z,98411.56
2018-09-30T04:59:32.168Z,98420.39
2018-09-30T05:02:01.511Z,98416.07
2018-09-30T05:04:30.853Z,98408.93
2018-09-30T05:07:00.000Z,98416.60
2018-09-30T05:09:29.165Z,98413.21
2018-09-30T05:11:58.390Z,98411.78
2018-09-30T05:14:27.655Z,98410.05
2018-09-30T05:16:56.898Z,98410.78
2018-09-30T05:19:26.195Z,98413.08
2018-09-30T05:21:55.342Z,98420.51
2018-09-30T05:24:24.515Z,98417.63
2018-09-30T05:26:53.663Z,98421.27
2018-09-30T05:29:22.867Z,98426.03
2018-09-30T05:31:52.063Z,98429.36
2018-09-30T05:34:21.244Z,98434.71
2018-09-30T05:36:50.253Z,98435.19
2018-09-30T05:39:19.519Z,98445.87
2018-09-30T05:41:48.919Z,98437.84
2018-09-30T05:44:17.911Z,98448.50
2018-09-30T05:46:47.048Z,98441.12
2018-09-30T05:49:16.422Z,98452.53
2018-09-30T05:51:45.754Z,98455.49
2018-09-30T05:54:14.796Z,98450.35
2018-09-30T05:56:44.143Z,98454.20
2018-09-30T05:59:13.136Z,98456.54
2018-09-30T06:01:42.075Z,98458.97
2018-09-30T06:04:11.236Z,98460.22
2018-09-30T06:06:40.631Z,98469.45
2018-09-30T06:09:12.835Z,98470.89
2018-09-30T06:11:42.464Z,98474.60
2018-09-30T06:14:11.990Z,98476.16
2018-09-30T06:16:41.413Z,98484.23
2018-09-30T06:19:10.563Z,98480.59
2018-09-30T06:21:40.635Z,98483.95
2018-09-30T06:24:10.893Z,98485.27
2018-09-30T06:26:40.396Z,98481.77
2018-09-30T06:29:09.588Z,98486.53
2018-09-30T06:31:38.834Z,98486.08
2018-09-30T06:34:08.886Z,98484.20
2018-09-30T06:36:38.009Z,98486.42
2018-09-30T06:39:09.509Z,98481.45
2018-09-30T06:41:38.937Z,98486.03
2018-09-30T06:44:08.248Z,98489.42
2018-09-30T06:46:37.726Z,98490.23
2018-09-30T06:49:07.163Z,98488.07
2018-09-30T06:51:36.506Z,98488.01
2018-09-30T06:54:05.871Z,98488.19
2018-09-30T06:56:35.386Z,98490.13
2018-09-30T06:59:04.978Z,98495.91
2018-09-30T07:01:34.426Z,98497.87
2018-09-30T07:04:03.694Z,98501.83
2018-09-30T07:06:33.043Z,98498.37
2018-09-30T07:09:02.639Z,98501.42
2018-09-30T07:11:31.917Z,98497.47
2018-09-30T07:14:01.063Z,98507.00
2018-09-30T07:16:30.175Z,98503.54
2018-09-30T07:18:59.464Z,98504.09
2018-09-30T07:21:28.639Z,98499.75
2018-09-30T07:23:57.947Z,98502.09
2018-09-30T07:26:27.189Z,98508.86
2018-09-30T07:28:57.303Z,98513.75
2018-09-30T07:31:27.159Z,98515.02
2018-09-30T07:33:56.583Z,98518.43
2018-09-30T07:36:27.336Z,98521.81
2018-09-30T07:38:56.631Z,98528.91
2018-09-30T07:41:25.875Z,98530.84
2018-09-30T07:43:55.091Z,98528.84
2018-09-30T07:46:24.583Z,98535.19
2018-09-30T07:48:53.583Z,98536.22
2018-09-30T07:51:22.714Z,98542.11
2018-09-30T07:53:52.088Z,98537.63
2018-09-30T07:56:21.283Z,98544.10
2018-09-30T07:58:50.259Z,98551.96
2018-09-30T08:01:19.869Z,98552.83
2018-09-30T08:03:49.298Z,98557.19
2018-09-30T08:06:18.776Z,98550.58
2018-09-30T08:08:47.736Z,98553.80
2018-09-30T08:11:17.203Z,98555.09
2018-09-30T08:13:46.481Z,98560.22
2018-09-30T08:16:15.621Z,98555.57
2018-09-30T08:18:44.755Z,98551.61
2018-09-30T08:21:13.904Z,98556.51
2018-09-30T08:23:43.527Z,98560.08
2018-09-30T08:26:12.556Z,98554.20
2018-09-30T08:28:42.131Z,98557.91
2018-09-30T08:31:11.455Z,98562.81
2018-09-30T08:33:40.800Z,98556.05
2018-09-30T08:36:10.763Z,98560.58
2018-09-30T08:38:41.467Z,98559.48
2018-09-30T08:41:11.790Z,98564.22
2018-09-30T08:43:42.473Z,98566.48
2018-09-30T08:46:12.032Z,98560.61
2018-09-30T08:48:42.407Z,98560.44
2018-09-30T08:51:11.495Z,98558.19
2018-09-30T08:53:40.606Z,98564.44
2018-09-30T08:56:10.111Z,98567.67
2018-09-30T08:58:39.441Z,98572.34
2018-09-30T09:01:08.842Z,98574.74
2018-09-30T09:03:38.086Z,98572.52
2018-09-30T09:06:07.545Z,98572.34
2018-09-30T09:08:36.803Z,98572.84
2018-09-30T09:11:06.216Z,98569.70
2018-09-30T09:13:35.495Z,98568.06
2018-09-30T09:16:04.781Z,98567.19
2018-09-30T09:18:34.148Z,98568.70
2018-09-30T09:21:03.240Z,98573.92
2018-09-30T09:23:32.579Z,98573.17
2018-09-30T09:26:01.981Z,98569.02
2018-09-30T09:28:31.169Z,98575.20
2018-09-30T09:31:00.121Z,98574.80
2018-09-30T09:33:29.298Z,98575.30
2018-09-30T09:35:58.457Z,98575.00
2018-09-30T09:38:27.509Z,98576.11
2018-09-30T09:40:56.597Z,98579.84
2018-09-30T09:43:27.098Z,98574.09
2018-09-30T09:45:56.578Z,98579.63
2018-09-30T09:48:25.920Z,98573.77
2018-09-30T09:50:55.363Z,98574.44
2018-09-30T09:53:24.645Z,98577.29
2018-09-30T09:55:54.076Z,98572.49
2018-09-30T09:58:23.110Z,98576.34
2018-09-30T10:00:52.227Z,98578.02
2018-09-30T10:03:23.159Z,98577.83
2018-09-30T10:05:52.643Z,98572.80
2018-09-30T10:08:29.529Z,98571.21
2018-09-30T10:10:58.772Z,98573.64
2018-09-30T10:13:29.328Z,98573.63
2018-09-30T10:15:58.784Z,98574.00
2018-09-30T10:18:28.292Z,98571.25
2018-09-30T10:20:57.517Z,98564.31
2018-09-30T10:23:27.124Z,98562.98
2018-09-30T10:25:56.307Z,98561.84
2018-09-30T10:28:25.168Z,98566.08
2018-09-30T10:30:54.439Z,98557.41
2018-09-30T10:33:23.437Z,98559.07
2018-09-30T10:35:52.604Z,98546.40
2018-09-30T10:38:21.674Z,98546.92
2018-09-30T10:40:50.966Z,98553.02
2018-09-30T10:43:20.250Z,98547.73
2018-09-30T10:45:49.478Z,98543.41
2018-09-30T10:48:19.122Z,98545.37
2018-09-30T10:50:48.343Z,98542.78
2018-09-30T10:53:17.536Z,98539.84
2018-09-30T10:55:46.783Z,98543.30
2018-09-30T10:58:16.101Z,98537.36
2018-09-30T11:00:45.283Z,98528.52
2018-09-30T11:03:15.137Z,98526.59
2018-09-30T11:05:44.784Z,98525.81
2018-09-30T11:08:14.152Z,98522.64
2018-09-30T11:10:44.448Z,98518.98
2018-09-30T11:34:34.632Z,98510.64
2018-09-30T11:37:03.879Z,98513.05
2018-09-30T11:39:32.974Z,98504.00
2018-09-30T11:42:02.163Z,98504.86
2018-09-30T11:44:31.531Z,98496.19
2018-09-30T11:47:00.879Z,98503.88
2018-09-30T11:49:30.334Z,98497.98
2018-09-30T11:51:59.683Z,98497.17
2018-09-30T11:54:28.935Z,98497.63
2018-09-30T11:56:58.072Z,98500.27
2018-09-30T11:59:27.413Z,98495.80
2018-09-30T12:01:56.463Z,98488.00
2018-09-30T12:04:25.807Z,98494.98
2018-09-30T12:06:55.079Z,98486.40
2018-09-30T12:09:24.715Z,98486.97
2018-09-30T12:11:53.868Z,98485.25
2018-09-30T12:14:23.093Z,98483.25
2018-09-30T12:16:52.506Z,98483.00
2018-09-30T12:19:21.785Z,98481.95
2018-09-30T12:21:51.170Z,98478.23
2018-09-30T12:24:20.549Z,98477.43
2018-09-30T12:26:51.004Z,98473.33
2018-09-30T12:29:20.187Z,98474.97
2018-09-30T12:31:49.744Z,98476.73
2018-09-30T12:34:19.738Z,98471.01
2018-09-30T12:36:48.964Z,98475.33
2018-09-30T12:39:18.223Z,98474.81
2018-09-30T12:41:47.543Z,98469.60
2018-09-30T12:44:16.521Z,98469.14
2018-09-30T12:46:45.666Z,98463.64
2018-09-30T12:49:18.916Z,98466.12
2018-09-30T12:51:49.541Z,98462.53
2018-09-30T12:54:19.166Z,98457.86
2018-09-30T12:56:50.145Z,98461.99
2018-09-30T12:59:19.596Z,98463.28
2018-09-30T13:01:49.566Z,98458.73
2018-09-30T13:04:18.935Z,98452.50
2018-09-30T13:06:48.531Z,98458.67
2018-09-30T13:09:18.469Z,98454.89
2018-09-30T13:11:48.717Z,98445.84
2018-09-30T13:14:19.515Z,98451.41
2018-09-30T13:16:48.883Z,98458.28
2018-09-30T13:19:18.568Z,98451.68
2018-09-30T13:21:47.635Z,98453.98
2018-09-30T13:24:16.504Z,98455.48
2018-09-30T13:26:45.476Z,98443.88
2018-09-30T13:29:14.556Z,98447.00
2018-09-30T13:31:43.759Z,98448.32
2018-09-30T13:34:12.927Z,98442.52
2018-09-30T13:36:42.200Z,98443.63
2018-09-30T13:39:12.295Z,98446.59
2018-09-30T13:41:41.884Z,98450.37
2018-09-30T13:44:11.043Z,98438.70
2018-09-30T13:46:40.298Z,98442.45
2018-09-30T13:49:09.218Z,98436.82
2018-09-30T13:51:38.469Z,98441.94
2018-09-30T13:54:07.995Z,98438.73
2018-09-30T13:56:38.376Z,98445.38
2018-09-30T13:59:08.767Z,98445.60
2018-09-30T14:01:38.219Z,98444.08
2018-09-30T14:04:08.653Z,98444.70
2018-09-30T14:06:39.894Z,98444.70
2018-09-30T14:09:10.471Z,98439.67
2018-09-30T14:11:41.407Z,98437.30
2018-09-30T14:14:10.350Z,98432.14
2018-09-30T14:16:40.822Z,98444.22
2018-09-30T14:19:10.215Z,98438.69
2018-09-30T14:21:39.590Z,98440.13
2018-09-30T14:24:09.831Z,98442.52
2018-09-30T14:26:41.052Z,98432.98
2018-09-30T14:29:18.597Z,98437.03
2018-09-30T14:31:48.755Z,98431.84
2018-09-30T14:34:18.750Z,98435.59
2018-09-30T14:36:48.740Z,98431.28
2018-09-30T14:39:17.986Z,98433.94
2018-09-30T14:41:47.164Z,98433.81
2018-09-30T14:44:16.774Z,98437.26
2018-09-30T14:46:49.629Z,98431.98
2018-09-30T14:49:19.319Z,98426.06
2018-09-30T14:51:48.293Z,98429.61
2018-09-30T14:54:19.871Z,98431.05
2018-09-30T14:56:50.436Z,98433.52
2018-09-30T14:59:20.160Z,98433.19
2018-09-30T15:01:49.683Z,98429.34
2018-09-30T15:04:18.892Z,98424.06
2018-09-30T15:06:47.928Z,98431.30
2018-09-30T15:09:18.957Z,98424.45
2018-09-30T15:11:48.329Z,98424.63
2018-09-30T15:14:17.726Z,98419.30
2018-09-30T15:16:47.420Z,98423.98
2018-09-30T15:19:16.390Z,98424.63
2018-09-30T15:21:45.711Z,98425.14
2018-09-30T15:24:15.115Z,98418.34
2018-09-30T15:26:44.221Z,98419.48
2018-09-30T15:29:13.279Z,98416.66
2018-09-30T15:31:42.550Z,98411.85
2018-09-30T15:34:11.942Z,98414.61
2018-09-30T15:36:41.183Z,98413.00
2018-09-30T15:39:12.945Z,98416.53
2018-09-30T15:41:42.684Z,98415.63
2018-09-30T15:44:12.483Z,98411.02
2018-09-30T15:46:41.666Z,98417.02
2018-09-30T15:49:11.559Z,98412.30
2018-09-30T15:51:40.903Z,98415.08
2018-09-30T15:54:10.063Z,98417.77
2018-09-30T15:56:39.500Z,98417.77
2018-09-30T15:59:09.588Z,98421.10
2018-09-30T16:01:38.977Z,98418.14
2018-09-30T16:04:08.716Z,98423.70
2018-09-30T16:06:39.248Z,98419.74
2018-09-30T16:09:09.415Z,98420.46
2018-09-30T16:11:38.767Z,98419.77
2018-09-30T16:14:08.843Z,98418.51
2018-09-30T16:16:38.300Z,98415.63
2018-09-30T16:19:08.418Z,98411.86
2018-09-30T16:21:37.978Z,98410.34
2018-09-30T16:24:07.175Z,98407.41
2018-09-30T16:26:36.362Z,98403.95
2018-09-30T16:29:05.567Z,98412.45
2018-09-30T16:31:34.814Z,98402.91
2018-09-30T16:34:03.835Z,98407.47
2018-09-30T16:36:32.899Z,98406.52
2018-09-30T16:39:03.761Z,98412.48
2018-09-30T16:41:32.952Z,98406.46
2018-09-30T16:44:02.195Z,98413.80
2018-09-30T16:46:31.475Z,98410.53
2018-09-30T16:49:01.244Z,98407.23
2018-09-30T16:51:30.448Z,98411.80
2018-09-30T16:53:59.746Z,98413.05
2018-09-30T16:56:28.812Z,98410.16
2018-09-30T16:58:57.793Z,98412.55
2018-09-30T17:01:27.084Z,98409.54
2018-09-30T17:03:56.457Z,98406.15
2018-09-30T17:06:25.770Z,98408.67
2018-09-30T17:08:54.935Z,98412.36
2018-09-30T17:11:24.822Z,98409.22
2018-09-30T17:13:54.733Z,98410.92
2018-09-30T17:16:23.928Z,98412.75
2018-09-30T17:18:53.534Z,98409.05
2018-09-30T17:21:22.865Z,98407.42
2018-09-30T17:23:52.036Z,98407.91
2018-09-30T17:26:21.749Z,98407.27
2018-09-30T17:28:50.820Z,98401.31
2018-09-30T17:31:20.588Z,98409.32
2018-09-30T17:33:49.959Z,98411.73
2018-09-30T17:36:19.274Z,98405.20
2018-09-30T17:38:48.543Z,98404.84
2018-09-30T17:41:17.856Z,98407.72
2018-09-30T17:43:47.260Z,98407.53
2018-09-30T17:46:16.476Z,98408.10
2018-09-30T17:48:45.659Z,98412.19
2018-09-30T17:51:15.096Z,98416.76
2018-09-30T17:53:44.322Z,98414.44
2018-09-30T17:56:13.529Z,98412.62
2018-09-30T17:58:44.003Z,98421.03
2018-09-30T18:01:13.683Z,98415.80
2018-09-30T18:03:43.240Z,98415.18
2018-09-30T18:06:12.530Z,98419.08
2018-09-30T18:08:41.545Z,98413.62
2018-09-30T18:11:14.724Z,98410.98
2018-09-30T18:13:44.997Z,98411.17
2018-09-30T18:16:13.932Z,98409.67
2018-09-30T18:18:42.941Z,98409.36
2018-09-30T18:21:12.181Z,98408.53
2018-09-30T18:23:42.491Z,98404.72
2018-09-30T18:26:12.529Z,98408.67
2018-09-30T18:28:42.299Z,98410.98
2018-09-30T18:31:11.666Z,98411.31
2018-09-30T18:33:43.236Z,98408.85
2018-09-30T18:36:13.733Z,98411.05
2018-09-30T18:38:43.986Z,98408.47
2018-09-30T18:41:14.416Z,98407.84
2018-09-30T18:43:44.166Z,98404.91
2018-09-30T18:46:13.551Z,98399.83
2018-09-30T18:48:42.765Z,98403.97
2018-09-30T18:51:13.043Z,98409.43
2018-09-30T18:53:42.438Z,98402.20
2018-09-30T18:56:12.309Z,98403.27
2018-09-30T18:58:46.411Z,98396.94
2018-09-30T19:01:15.872Z,98402.52
2018-09-30T19:03:45.297Z,98397.56
2018-09-30T19:06:14.831Z,98396.19
2018-09-30T19:08:44.225Z,98391.16
2018-09-30T19:11:13.627Z,98393.80
2018-09-30T19:13:43.203Z,98391.22
2018-09-30T19:16:12.718Z,98383.88
2018-09-30T19:18:42.067Z,98388.08
2018-09-30T19:21:11.520Z,98384.39
2018-09-30T19:23:41.141Z,98378.48
2018-09-30T19:26:10.570Z,98379.42
2018-09-30T19:28:39.600Z,98379.15
2018-09-30T19:31:08.664Z,98379.59
2018-09-30T19:33:38.052Z,98370.81
2018-09-30T19:36:07.243Z,98374.95
2018-09-30T19:38:37.962Z,98373.64
2018-09-30T19:41:07.408Z,98373.34
2018-09-30T19:43:36.841Z,98372.70
2018-09-30T19:46:06.273Z,98362.61
2018-09-30T19:48:36.107Z,98363.94
2018-09-30T19:51:05.388Z,98363.03
2018-09-30T19:53:35.009Z,98357.77
2018-09-30T19:56:04.511Z,98358.39
2018-09-30T19:58:33.835Z,98357.02
2018-09-30T20:01:02.885Z,98348.11
2018-09-30T20:03:32.005Z,98347.96
2018-09-30T20:06:01.389Z,98343.80
2018-09-30T20:08:30.676Z,98344.28
2018-09-30T20:10:59.812Z,98346.43
2018-09-30T20:13:29.086Z,98348.55
2018-09-30T20:15:58.348Z,98337.13
2018-09-30T20:18:27.483Z,98332.91
2018-09-30T20:20:56.648Z,98332.03
2018-09-30T20:23:25.711Z,98328.47
2018-09-30T20:25:54.855Z,98329.28
2018-09-30T20:28:24.105Z,98330.08
2018-09-30T20:30:53.299Z,98322.11
2018-09-30T20:33:22.634Z,98320.16
2018-09-30T20:35:51.896Z,98321.24
2018-09-30T20:38:20.857Z,98316.48
2018-09-30T20:40:50.141Z,98317.20
2018-09-30T20:43:19.357Z,98321.98
2018-09-30T20:45:48.822Z,98313.75
2018-09-30T20:48:18.223Z,98308.64
2018-09-30T20:50:47.383Z,98307.91
2018-09-30T20:53:16.723Z,98306.95
2018-09-30T20:55:45.617Z,98307.61
2018-09-30T20:58:14.578Z,98298.86
2018-09-30T21:00:43.637Z,98297.09
2018-09-30T21:03:12.639Z,98292.72
2018-09-30T21:06:36.175Z,98290.48
2018-09-30T21:09:08.203Z,98285.39
2018-09-30T21:11:37.154Z,98288.20
2018-09-30T21:14:06.329Z,98288.20
2018-09-30T21:16:35.770Z,98286.65
2018-09-30T21:19:05.180Z,98281.70
2018-09-30T21:21:34.134Z,98278.27
2018-09-30T21:24:03.363Z,98270.90
2018-09-30T21:26:32.463Z,98270.77
2018-09-30T21:29:01.761Z,98275.05
2018-09-30T21:31:31.215Z,98265.44
2018-09-30T21:34:00.206Z,98262.48
2018-09-30T21:36:29.138Z,98270.07
2018-09-30T21:38:58.276Z,98262.29
2018-09-30T21:41:27.435Z,98258.39
2018-09-30T21:43:56.644Z,98254.50
2018-09-30T21:46:25.759Z,98260.12
2018-09-30T21:48:55.071Z,98256.34
2018-09-30T21:51:24.024Z,98251.80
2018-09-30T21:53:53.342Z,98255.36
2018-09-30T21:56:22.606Z,98253.18
2018-09-30T21:58:51.863Z,98245.59
2018-09-30T22:01:21.445Z,98244.27
2018-09-30T22:03:50.646Z,98244.66
2018-09-30T22:06:19.917Z,98240.00
2018-09-30T22:08:48.778Z,98235.47
2018-09-30T22:11:17.794Z,98231.48
2018-09-30T22:13:47.202Z,98226.56
2018-09-30T22:16:16.466Z,98219.98
2018-09-30T22:18:45.515Z,98215.28
2018-09-30T22:21:14.825Z,98218.83
2018-09-30T22:23:44.156Z,98215.61
2018-09-30T22:26:13.444Z,98213.23
2018-09-30T22:28:42.443Z,98215.87
2018-09-30T22:31:11.637Z,98213.88
2018-09-30T22:33:40.923Z,98212.33
2018-09-30T22:36:10.132Z,98216.80
2018-09-30T22:38:39.519Z,98211.53
2018-09-30T22:41:08.739Z,98208.67
2018-09-30T22:43:37.784Z,98211.05
2018-09-30T22:46:07.228Z,98215.80
2018-09-30T22:48:36.263Z,98209.05
2018-09-30T22:51:05.535Z,98208.57
2018-09-30T22:53:34.819Z,98207.58
2018-09-30T22:56:04.179Z,98205.84
2018-09-30T22:58:33.485Z,98207.83
2018-09-30T23:01:03.028Z,98207.90
2018-09-30T23:03:31.975Z,98194.46
2018-09-30T23:06:01.161Z,98200.63
2018-09-30T23:08:30.099Z,98193.59
2018-09-30T23:10:59.231Z,98195.14
2018-09-30T23:13:28.479Z,98181.95
2018-09-30T23:15:57.685Z,98183.56
2018-09-30T23:18:26.672Z,98180.03
2018-09-30T23:20:56.085Z,98172.73
2018-09-30T23:23:25.340Z,98175.62
2018-09-30T23:25:54.579Z,98168.98
2018-09-30T23:28:23.482Z,98170.97
2018-09-30T23:30:52.559Z,98170.16
2018-09-30T23:33:21.956Z,98160.75
2018-09-30T23:35:51.259Z,98168.17
2018-09-30T23:38:20.663Z,98161.81
2018-09-30T23:40:49.660Z,98161.81
2018-09-30T23:43:18.948Z,98156.02
2018-09-30T23:45:48.304Z,98157.85
2018-09-30T23:48:17.522Z,98156.69
2018-09-30T23:50:46.756Z,98154.25
2018-09-30T23:53:15.796Z,98148.25
2018-09-30T23:55:44.996Z,98143.42
2018-09-30T23:58:15.000Z,98147.38
